This is the latest recevied weather packets stored in our database for station/object VE3MNX. If no packets are shown the sender has not sent any weather packets the latest 10 day(s).
| Time | Temp. | Humidity | Pressure | Rain* | Wind** | Luminosity | Snow |
|---|---|---|---|---|---|---|---|
| 1778116097 | 8.33° C | 81% | 1012.2 hPa | 0 mm | - | - | - |
| 1778115198 | 7.78° C | 79% | 1012.2 hPa | 0 mm | - | - | - |
| 1778114296 | 7.78° C | 79% | 1012.2 hPa | 0 mm | - | - | - |
| 1778113456 | 7.78° C | 81% | 1012.5 hPa | 0 mm | - | - | - |
| 1778112555 | 8.33° C | 80% | 1011.9 hPa | 0 mm | - | - | - |
| 1778111598 | 8.33° C | 80% | 1011.9 hPa | 0 mm | - | - | - |
| 1778110697 | 8.33° C | 82% | 1011.9 hPa | 0 mm | - | - | - |
| 1778109796 | 8.33° C | 78% | 1011.9 hPa | 0 mm | - | - | - |
| 1778108896 | 8.33° C | 78% | 1011.9 hPa | 0 mm | - | - | - |
| 1778107998 | 8.33° C | 75% | 1011.9 hPa | 0 mm | - | - | - |
| 1778107096 | 8.33° C | 81% | 1011.9 hPa | 0 mm | - | - | - |
| 1778106197 | 8.89° C | 75% | 1012 hPa | 0 mm | - | - | - |
| 1778105297 | 8.89° C | 75% | 1011.9 hPa | 0 mm | - | - | - |
| 1778104400 | 8.89° C | 74% | 1011.8 hPa | 0 mm | - | - | - |
| 1778103496 | 9.44° C | 75% | 1011.5 hPa | 0 mm | - | - | - |
| 1778102596 | 10.56° C | 66% | 1011.2 hPa | 0 mm | - | - | - |
| 1778101696 | 10.56° C | 64% | 1011.2 hPa | 0 mm | - | - | - |
| 1778100798 | 11.11° C | 65% | 1010.8 hPa | 0 mm | - | - | - |
| 1778099896 | 11.11° C | 62% | 1010.8 hPa | 0 mm | - | - | - |
| 1778098997 | 11.11° C | 66% | 1010.8 hPa | 0 mm | - | - | - |
| 1778098096 | 10.56° C | 64% | 1011.2 hPa | 0 mm | - | - | - |
| 1778097200 | 11.11° C | 63% | 1011.2 hPa | 0 mm | - | - | - |
| 1778096300 | 11.11° C | 61% | 1010.8 hPa | 0 mm | - | - | - |
| 1778095399 | 10.56° C | 65% | 1010.8 hPa | 0 mm | - | - | - |
| 1778094497 | 11.11° C | 62% | 1010.8 hPa | 0 mm | - | - | - |
* Rain latest hour (hover to see other rain measurements)
** Current wind speed in m/s (hover to see current wind gust speed)